sensor_id;sensor_type;location;lat;lon;timestamp;pressure;altitude;pressure_sealevel;temperature;humidity
40315;BME280;26021;45.640;11.302;2023-04-15T00:00:22;97648.81;;;6.71;100.00
40315;BME280;26021;45.640;11.302;2023-04-15T00:02:48;97641.66;;;6.71;100.00
40315;BME280;26021;45.640;11.302;2023-04-15T00:05:14;97630.34;;;6.54;100.00
40315;BME280;26021;45.640;11.302;2023-04-15T00:07:39;97629.81;;;6.59;100.00
40315;BME280;26021;45.640;11.302;2023-04-15T00:10:06;97595.94;;;6.23;100.00
40315;BME280;26021;45.640;11.302;2023-04-15T00:12:31;97604.81;;;6.16;100.00
40315;BME280;26021;45.640;11.302;2023-04-15T00:17:41;97604.91;;;6.22;100.00
40315;BME280;26021;45.640;11.302;2023-04-15T00:20:07;97623.06;;;6.33;100.00
40315;BME280;26021;45.640;11.302;2023-04-15T00:22:32;97625.53;;;6.35;100.00
40315;BME280;26021;45.640;11.302;2023-04-15T00:24:58;97604.13;;;6.36;100.00
40315;BME280;26021;45.640;11.302;2023-04-15T00:27:23;97613.47;;;6.47;100.00
40315;BME280;26021;45.640;11.302;2023-04-15T00:29:49;97594.13;;;6.24;100.00
40315;BME280;26021;45.640;11.302;2023-04-15T00:32:14;97620.41;;;6.33;100.00
40315;BME280;26021;45.640;11.302;2023-04-15T00:34:40;97616.78;;;6.49;100.00
40315;BME280;26021;45.640;11.302;2023-04-15T00:37:05;97612.34;;;6.27;100.00
40315;BME280;26021;45.640;11.302;2023-04-15T00:39:31;97596.75;;;6.09;100.00
40315;BME280;26021;45.640;11.302;2023-04-15T00:41:56;97612.59;;;6.17;100.00
40315;BME280;26021;45.640;11.302;2023-04-15T00:44:22;97609.72;;;6.42;100.00
40315;BME280;26021;45.640;11.302;2023-04-15T00:46:50;97620.34;;;6.04;100.00
40315;BME280;26021;45.640;11.302;2023-04-15T00:52:00;97617.41;;;6.36;100.00
40315;BME280;26021;45.640;11.302;2023-04-15T00:54:25;97593.84;;;6.19;100.00
40315;BME280;26021;45.640;11.302;2023-04-15T00:56:51;97618.50;;;6.42;100.00
40315;BME280;26021;45.640;11.302;2023-04-15T00:59:16;97563.84;;;5.87;100.00
40315;BME280;26021;45.640;11.302;2023-04-15T01:01:43;97615.53;;;6.22;100.00
40315;BME280;26021;45.640;11.302;2023-04-15T01:04:09;97599.22;;;6.11;100.00
40315;BME280;26021;45.640;11.302;2023-04-15T01:06:35;97586.38;;;5.99;100.00
40315;BME280;26021;45.640;11.302;2023-04-15T01:09:01;97581.13;;;5.83;100.00
40315;BME280;26021;45.640;11.302;2023-04-15T01:11:27;97411.91;;;4.72;100.00
40315;BME280;26021;45.640;11.302;2023-04-15T01:13:54;97622.06;;;5.89;100.00
40315;BME280;26021;45.640;11.302;2023-04-15T01:16:21;97598.06;;;5.59;100.00
40315;BME280;26021;45.640;11.302;2023-04-15T01:18:47;97622.72;;;5.91;100.00
40315;BME280;26021;45.640;11.302;2023-04-15T01:21:13;97621.47;;;5.79;100.00
40315;BME280;26021;45.640;11.302;2023-04-15T01:23:39;97543.06;;;5.30;100.00
40315;BME280;26021;45.640;11.302;2023-04-15T01:26:05;97611.75;;;5.94;100.00
40315;BME280;26021;45.640;11.302;2023-04-15T01:28:32;97627.59;;;5.79;100.00
40315;BME280;26021;45.640;11.302;2023-04-15T01:31:10;97549.06;;;5.24;100.00
40315;BME280;26021;45.640;11.302;2023-04-15T01:33:37;97610.13;;;5.62;100.00
40315;BME280;26021;45.640;11.302;2023-04-15T01:36:04;97628.59;;;5.78;100.00
40315;BME280;26021;45.640;11.302;2023-04-15T01:38:30;97631.97;;;5.72;100.00
40315;BME280;26021;45.640;11.302;2023-04-15T01:40:56;97626.53;;;5.65;100.00
40315;BME280;26021;45.640;11.302;2023-04-15T01:43:22;97633.13;;;5.69;100.00
40315;BME280;26021;45.640;11.302;2023-04-15T01:45:47;97603.22;;;5.53;100.00
40315;BME280;26021;45.640;11.302;2023-04-15T01:48:13;97635.00;;;5.61;100.00
40315;BME280;26021;45.640;11.302;2023-04-15T01:50:38;97626.53;;;5.34;100.00
40315;BME280;26021;45.640;11.302;2023-04-15T01:53:04;97600.94;;;5.50;100.00
40315;BME280;26021;45.640;11.302;2023-04-15T01:55:29;97632.44;;;5.45;100.00
40315;BME280;26021;45.640;11.302;2023-04-15T01:57:55;97598.59;;;5.16;100.00
40315;BME280;26021;45.640;11.302;2023-04-15T02:00:21;97636.66;;;5.62;100.00
40315;BME280;26021;45.640;11.302;2023-04-15T02:02:47;97648.19;;;5.46;100.00
40315;BME280;26021;45.640;11.302;2023-04-15T02:05:12;97638.44;;;5.38;100.00
40315;BME280;26021;45.640;11.302;2023-04-15T02:07:38;97630.44;;;5.47;100.00
40315;BME280;26021;45.640;11.302;2023-04-15T02:10:04;97620.47;;;5.26;100.00
40315;BME280;26021;45.640;11.302;2023-04-15T02:12:29;97645.97;;;5.58;100.00
40315;BME280;26021;45.640;11.302;2023-04-15T02:14:55;97643.28;;;5.66;100.00
40315;BME280;26021;45.640;11.302;2023-04-15T02:17:20;97643.09;;;5.67;100.00
40315;BME280;26021;45.640;11.302;2023-04-15T02:19:46;97641.00;;;5.55;100.00
40315;BME280;26021;45.640;11.302;2023-04-15T02:22:12;97634.00;;;5.62;100.00
40315;BME280;26021;45.640;11.302;2023-04-15T02:24:42;97639.94;;;5.41;100.00
40315;BME280;26021;45.640;11.302;2023-04-15T02:27:08;97594.34;;;5.06;100.00
40315;BME280;26021;45.640;11.302;2023-04-15T02:29:33;97623.31;;;5.47;100.00
40315;BME280;26021;45.640;11.302;2023-04-15T02:31:59;97574.31;;;5.04;100.00
40315;BME280;26021;45.640;11.302;2023-04-15T02:34:24;97639.72;;;5.51;100.00
40315;BME280;26021;45.640;11.302;2023-04-15T02:36:51;97646.13;;;5.25;100.00
40315;BME280;26021;45.640;11.302;2023-04-15T02:39:21;97574.50;;;5.02;100.00
40315;BME280;26021;45.640;11.302;2023-04-15T02:41:47;97639.81;;;5.34;100.00
40315;BME280;26021;45.640;11.302;2023-04-15T02:44:16;97645.63;;;5.30;100.00
40315;BME280;26021;45.640;11.302;2023-04-15T02:46:45;97636.81;;;5.37;100.00
40315;BME280;26021;45.640;11.302;2023-04-15T02:49:14;97582.09;;;5.05;100.00
40315;BME280;26021;45.640;11.302;2023-04-15T02:51:40;97646.44;;;5.61;100.00
40315;BME280;26021;45.640;11.302;2023-04-15T02:54:06;97651.72;;;5.38;100.00
40315;BME280;26021;45.640;11.302;2023-04-15T02:56:32;97650.97;;;5.14;100.00
40315;BME280;26021;45.640;11.302;2023-04-15T02:58:57;97642.09;;;5.37;100.00
40315;BME280;26021;45.640;11.302;2023-04-15T03:01:22;97455.53;;;3.98;100.00
40315;BME280;26021;45.640;11.302;2023-04-15T03:03:48;97648.97;;;5.24;100.00
40315;BME280;26021;45.640;11.302;2023-04-15T03:06:13;97478.84;;;4.03;100.00
40315;BME280;26021;45.640;11.302;2023-04-15T03:08:39;97575.06;;;4.82;100.00
40315;BME280;26021;45.640;11.302;2023-04-15T03:11:04;97659.94;;;5.04;100.00
40315;BME280;26021;45.640;11.302;2023-04-15T03:13:30;97652.09;;;5.27;100.00
40315;BME280;26021;45.640;11.302;2023-04-15T03:15:55;97654.25;;;5.24;100.00
40315;BME280;26021;45.640;11.302;2023-04-15T03:18:21;97659.78;;;4.98;100.00
40315;BME280;26021;45.640;11.302;2023-04-15T03:20:47;97653.78;;;5.20;100.00
40315;BME280;26021;45.640;11.302;2023-04-15T03:23:13;97658.59;;;5.08;100.00
40315;BME280;26021;45.640;11.302;2023-04-15T03:25:38;97659.22;;;5.19;100.00
40315;BME280;26021;45.640;11.302;2023-04-15T03:28:04;97659.22;;;5.19;100.00
40315;BME280;26021;45.640;11.302;2023-04-15T03:30:29;97668.88;;;5.03;100.00
40315;BME280;26021;45.640;11.302;2023-04-15T03:32:55;97665.28;;;4.88;100.00
40315;BME280;26021;45.640;11.302;2023-04-15T03:35:20;97607.09;;;4.64;100.00
40315;BME280;26021;45.640;11.302;2023-04-15T03:37:45;97656.66;;;4.94;100.00
40315;BME280;26021;45.640;11.302;2023-04-15T03:40:13;97644.56;;;5.00;100.00
40315;BME280;26021;45.640;11.302;2023-04-15T03:42:38;97625.22;;;4.91;100.00
40315;BME280;26021;45.640;11.302;2023-04-15T03:45:05;97650.34;;;5.03;100.00
40315;BME280;26021;45.640;11.302;2023-04-15T03:47:31;97670.81;;;5.26;100.00
40315;BME280;26021;45.640;11.302;2023-04-15T03:49:57;97670.47;;;5.29;100.00
40315;BME280;26021;45.640;11.302;2023-04-15T03:52:22;97660.88;;;5.20;100.00
40315;BME280;26021;45.640;11.302;2023-04-15T03:54:48;97647.44;;;5.29;100.00
40315;BME280;26021;45.640;11.302;2023-04-15T03:57:13;97639.66;;;5.20;100.00
40315;BME280;26021;45.640;11.302;2023-04-15T03:59:38;97668.00;;;5.27;100.00
40315;BME280;26021;45.640;11.302;2023-04-15T04:02:04;97673.06;;;5.45;100.00
40315;BME280;26021;45.640;11.302;2023-04-15T04:04:29;97668.28;;;5.40;100.00
40315;BME280;26021;45.640;11.302;2023-04-15T04:06:55;97378.75;;;3.75;100.00
40315;BME280;26021;45.640;11.302;2023-04-15T04:09:20;97673.00;;;5.53;100.00
40315;BME280;26021;45.640;11.302;2023-04-15T04:11:45;97677.28;;;5.23;100.00
40315;BME280;26021;45.640;11.302;2023-04-15T04:14:11;97655.19;;;5.39;100.00
40315;BME280;26021;45.640;11.302;2023-04-15T04:16:36;97668.44;;;5.70;100.00
40315;BME280;26021;45.640;11.302;2023-04-15T04:19:02;97677.56;;;5.67;100.00
40315;BME280;26021;45.640;11.302;2023-04-15T04:21:27;97677.16;;;5.56;100.00
40315;BME280;26021;45.640;11.302;2023-04-15T04:23:52;97673.94;;;5.68;100.00
40315;BME280;26021;45.640;11.302;2023-04-15T04:26:18;97639.66;;;5.59;100.00
40315;BME280;26021;45.640;11.302;2023-04-15T04:28:43;97670.88;;;5.80;100.00
40315;BME280;26021;45.640;11.302;2023-04-15T04:31:09;97587.00;;;5.17;100.00
40315;BME280;26021;45.640;11.302;2023-04-15T04:33:35;97656.13;;;5.77;100.00
40315;BME280;26021;45.640;11.302;2023-04-15T04:36:00;97681.19;;;5.74;100.00
40315;BME280;26021;45.640;11.302;2023-04-15T04:38:26;97675.66;;;5.84;100.00
40315;BME280;26021;45.640;11.302;2023-04-15T04:40:51;97590.66;;;5.24;100.00
40315;BME280;26021;45.640;11.302;2023-04-15T04:43:16;97674.41;;;5.72;100.00
40315;BME280;26021;45.640;11.302;2023-04-15T04:45:42;97679.88;;;5.70;100.00
40315;BME280;26021;45.640;11.302;2023-04-15T04:48:07;97657.78;;;5.47;100.00
40315;BME280;26021;45.640;11.302;2023-04-15T04:50:34;97676.34;;;5.78;100.00
40315;BME280;26021;45.640;11.302;2023-04-15T04:53:00;97678.47;;;5.83;100.00
40315;BME280;26021;45.640;11.302;2023-04-15T04:55:26;97680.53;;;5.72;100.00
40315;BME280;26021;45.640;11.302;2023-04-15T04:57:52;97685.31;;;5.77;100.00
40315;BME280;26021;45.640;11.302;2023-04-15T05:00:17;97632.44;;;5.45;100.00
40315;BME280;26021;45.640;11.302;2023-04-15T05:02:43;97685.06;;;5.64;100.00
40315;BME280;26021;45.640;11.302;2023-04-15T05:05:09;97683.59;;;5.92;100.00
40315;BME280;26021;45.640;11.302;2023-04-15T05:07:36;97690.56;;;5.93;100.00
40315;BME280;26021;45.640;11.302;2023-04-15T05:10:02;97692.88;;;5.96;100.00
40315;BME280;26021;45.640;11.302;2023-04-15T05:12:27;97694.53;;;6.20;100.00
40315;BME280;26021;45.640;11.302;2023-04-15T05:14:53;97597.06;;;5.60;100.00
40315;BME280;26021;45.640;11.302;2023-04-15T05:17:18;97686.59;;;5.89;100.00
40315;BME280;26021;45.640;11.302;2023-04-15T05:19:43;97664.88;;;5.86;100.00
40315;BME280;26021;45.640;11.302;2023-04-15T05:22:09;97675.44;;;5.94;100.00
40315;BME280;26021;45.640;11.302;2023-04-15T05:24:34;97686.09;;;6.17;100.00
40315;BME280;26021;45.640;11.302;2023-04-15T05:27:00;97696.97;;;6.07;100.00
40315;BME280;26021;45.640;11.302;2023-04-15T05:29:26;97696.69;;;5.94;100.00
40315;BME280;26021;45.640;11.302;2023-04-15T05:31:51;97689.94;;;6.14;100.00
40315;BME280;26021;45.640;11.302;2023-04-15T05:34:17;97697.72;;;6.16;100.00
40315;BME280;26021;45.640;11.302;2023-04-15T05:36:42;97693.91;;;6.18;100.00
40315;BME280;26021;45.640;11.302;2023-04-15T05:39:07;97633.78;;;5.71;100.00
40315;BME280;26021;45.640;11.302;2023-04-15T05:41:33;97695.59;;;6.11;100.00
40315;BME280;26021;45.640;11.302;2023-04-15T05:43:58;97692.59;;;6.14;100.00
40315;BME280;26021;45.640;11.302;2023-04-15T05:46:24;97699.72;;;6.14;100.00
40315;BME280;26021;45.640;11.302;2023-04-15T05:48:49;97507.72;;;5.07;100.00
40315;BME280;26021;45.640;11.302;2023-04-15T05:51:15;97703.44;;;6.27;100.00
40315;BME280;26021;45.640;11.302;2023-04-15T05:53:40;97696.97;;;6.67;100.00
40315;BME280;26021;45.640;11.302;2023-04-15T05:56:06;97629.34;;;6.18;100.00
40315;BME280;26021;45.640;11.302;2023-04-15T05:58:32;97631.56;;;6.29;100.00
40315;BME280;26021;45.640;11.302;2023-04-15T06:00:57;97701.41;;;6.75;100.00
40315;BME280;26021;45.640;11.302;2023-04-15T06:03:23;97708.59;;;7.04;100.00
40315;BME280;26021;45.640;11.302;2023-04-15T06:05:48;97704.00;;;7.13;100.00
40315;BME280;26021;45.640;11.302;2023-04-15T06:08:14;97714.19;;;7.24;100.00
40315;BME280;26021;45.640;11.302;2023-04-15T06:10:39;97715.22;;;7.52;100.00
40315;BME280;26021;45.640;11.302;2023-04-15T06:13:04;97636.03;;;7.40;100.00
40315;BME280;26021;45.640;11.302;2023-04-15T06:15:30;97713.38;;;8.04;100.00
40315;BME280;26021;45.640;11.302;2023-04-15T06:17:56;97649.91;;;8.07;100.00
40315;BME280;26021;45.640;11.302;2023-04-15T06:20:21;97709.06;;;8.39;100.00
40315;BME280;26021;45.640;11.302;2023-04-15T06:22:47;97687.16;;;8.65;100.00
40315;BME280;26021;45.640;11.302;2023-04-15T06:25:12;97706.72;;;8.78;100.00
40315;BME280;26021;45.640;11.302;2023-04-15T06:27:38;97712.75;;;8.87;100.00
40315;BME280;26021;45.640;11.302;2023-04-15T06:30:04;97657.91;;;8.78;100.00
40315;BME280;26021;45.640;11.302;2023-04-15T06:32:31;97707.69;;;8.92;100.00
40315;BME280;26021;45.640;11.302;2023-04-15T06:34:56;97712.06;;;9.00;100.00
40315;BME280;26021;45.640;11.302;2023-04-15T06:37:22;97712.69;;;9.02;100.00
40315;BME280;26021;45.640;11.302;2023-04-15T06:39:47;97714.81;;;8.64;100.00
40315;BME280;26021;45.640;11.302;2023-04-15T06:42:13;97699.06;;;8.69;100.00
40315;BME280;26021;45.640;11.302;2023-04-15T06:44:38;97722.75;;;8.57;100.00
40315;BME280;26021;45.640;11.302;2023-04-15T06:47:04;97718.31;;;8.64;100.00
40315;BME280;26021;45.640;11.302;2023-04-15T06:49:30;97711.28;;;9.06;100.00
40315;BME280;26021;45.640;11.302;2023-04-15T06:51:55;97721.03;;;8.92;100.00
40315;BME280;26021;45.640;11.302;2023-04-15T06:54:21;97648.47;;;8.75;100.00
40315;BME280;26021;45.640;11.302;2023-04-15T06:56:47;97708.34;;;9.29;100.00
40315;BME280;26021;45.640;11.302;2023-04-15T06:59:12;97675.72;;;8.99;100.00
40315;BME280;26021;45.640;11.302;2023-04-15T07:01:39;97691.34;;;9.02;100.00
40315;BME280;26021;45.640;11.302;2023-04-15T07:04:05;97649.88;;;8.43;100.00
40315;BME280;26021;45.640;11.302;2023-04-15T07:06:31;97712.47;;;8.75;100.00
40315;BME280;26021;45.640;11.302;2023-04-15T07:08:58;97712.53;;;9.44;100.00
40315;BME280;26021;45.640;11.302;2023-04-15T07:11:25;97713.78;;;9.90;100.00
40315;BME280;26021;45.640;11.302;2023-04-15T07:13:50;97716.41;;;10.37;100.00
40315;BME280;26021;45.640;11.302;2023-04-15T07:16:16;97704.31;;;10.61;100.00
40315;BME280;26021;45.640;11.302;2023-04-15T07:18:41;97710.28;;;10.83;100.00
40315;BME280;26021;45.640;11.302;2023-04-15T07:21:07;97708.19;;;11.38;100.00
40315;BME280;26021;45.640;11.302;2023-04-15T07:23:33;97706.25;;;11.65;100.00
40315;BME280;26021;45.640;11.302;2023-04-15T07:25:58;97619.16;;;11.56;100.00
40315;BME280;26021;45.640;11.302;2023-04-15T07:28:24;97705.16;;;11.99;100.00
40315;BME280;26021;45.640;11.302;2023-04-15T07:30:49;97700.22;;;12.34;100.00
40315;BME280;26021;45.640;11.302;2023-04-15T07:33:15;97667.81;;;11.39;100.00
40315;BME280;26021;45.640;11.302;2023-04-15T07:35:40;97702.56;;;11.59;100.00
40315;BME280;26021;45.640;11.302;2023-04-15T07:38:05;97704.41;;;11.65;100.00
40315;BME280;26021;45.640;11.302;2023-04-15T07:40:31;97706.78;;;12.00;100.00
40315;BME280;26021;45.640;11.302;2023-04-15T07:42:57;97700.16;;;12.09;100.00
40315;BME280;26021;45.640;11.302;2023-04-15T07:45:23;97679.88;;;12.20;100.00
40315;BME280;26021;45.640;11.302;2023-04-15T07:47:48;97704.22;;;12.18;100.00
40315;BME280;26021;45.640;11.302;2023-04-15T07:50:15;97640.31;;;11.70;100.00
40315;BME280;26021;45.640;11.302;2023-04-15T07:52:41;97703.94;;;12.33;100.00
40315;BME280;26021;45.640;11.302;2023-04-15T07:55:07;97699.50;;;12.45;100.00
40315;BME280;26021;45.640;11.302;2023-04-15T07:57:33;97697.94;;;12.69;100.00
40315;BME280;26021;45.640;11.302;2023-04-15T08:00:00;97635.75;;;12.22;100.00
40315;BME280;26021;45.640;11.302;2023-04-15T08:02:25;97543.19;;;11.50;100.00
40315;BME280;26021;45.640;11.302;2023-04-15T08:04:51;97702.69;;;12.67;100.00
40315;BME280;26021;45.640;11.302;2023-04-15T08:07:17;97609.75;;;12.23;100.00
40315;BME280;26021;45.640;11.302;2023-04-15T08:09:43;97701.22;;;12.71;100.00
40315;BME280;26021;45.640;11.302;2023-04-15T08:12:08;97694.97;;;13.02;100.00
40315;BME280;26021;45.640;11.302;2023-04-15T08:14:36;97620.59;;;12.59;100.00
40315;BME280;26021;45.640;11.302;2023-04-15T08:17:02;97704.13;;;13.19;97.00
40315;BME280;26021;45.640;11.302;2023-04-15T08:19:28;97687.91;;;12.83;96.45
40315;BME280;26021;45.640;11.302;2023-04-15T08:21:54;97696.28;;;13.18;96.17
40315;BME280;26021;45.640;11.302;2023-04-15T08:24:21;97697.72;;;13.20;98.23
40315;BME280;26021;45.640;11.302;2023-04-15T08:26:46;97684.75;;;13.35;99.08
40315;BME280;26021;45.640;11.302;2023-04-15T08:29:12;97699.34;;;13.46;98.24
40315;BME280;26021;45.640;11.302;2023-04-15T08:31:37;97696.00;;;13.26;94.53
40315;BME280;26021;45.640;11.302;2023-04-15T08:34:03;97693.59;;;13.43;95.33
40315;BME280;26021;45.640;11.302;2023-04-15T08:36:29;97672.22;;;13.29;99.17
40315;BME280;26021;45.640;11.302;2023-04-15T08:38:54;97698.53;;;13.21;94.22
40315;BME280;26021;45.640;11.302;2023-04-15T08:41:21;97697.38;;;12.85;96.68
40315;BME280;26021;45.640;11.302;2023-04-15T08:46:19;97688.38;;;13.48;92.83
40315;BME280;26021;45.640;11.302;2023-04-15T08:48:46;97689.69;;;13.75;95.27
40315;BME280;26021;45.640;11.302;2023-04-15T08:51:12;97695.66;;;13.77;88.27
40315;BME280;26021;45.640;11.302;2023-04-15T08:53:42;97668.91;;;13.52;92.04
40315;BME280;26021;45.640;11.302;2023-04-15T08:56:08;97697.06;;;13.98;84.56
40315;BME280;26021;45.640;11.302;2023-04-15T08:58:36;97687.25;;;13.55;86.57
40315;BME280;26021;45.640;11.302;2023-04-15T09:01:02;97637.16;;;13.24;84.89
40315;BME280;26021;45.640;11.302;2023-04-15T09:03:27;97688.28;;;13.73;85.79
40315;BME280;26021;45.640;11.302;2023-04-15T09:05:53;97691.06;;;13.66;83.38
40315;BME280;26021;45.640;11.302;2023-04-15T09:08:19;97685.34;;;13.92;85.39
40315;BME280;26021;45.640;11.302;2023-04-15T09:10:44;97688.84;;;13.93;83.83
40315;BME280;26021;45.640;11.302;2023-04-15T09:13:10;97648.44;;;13.70;82.96
40315;BME280;26021;45.640;11.302;2023-04-15T09:15:37;97676.72;;;13.72;83.58
40315;BME280;26021;45.640;11.302;2023-04-15T09:18:03;97615.09;;;13.41;84.07
40315;BME280;26021;45.640;11.302;2023-04-15T09:20:29;97674.47;;;13.87;84.12
40315;BME280;26021;45.640;11.302;2023-04-15T09:22:54;97679.38;;;13.90;85.20
40315;BME280;26021;45.640;11.302;2023-04-15T09:27:53;97675.50;;;14.35;79.62
40315;BME280;26021;45.640;11.302;2023-04-15T09:30:19;97649.88;;;14.32;81.27
40315;BME280;26021;45.640;11.302;2023-04-15T09:32:52;97683.25;;;13.94;78.46
40315;BME280;26021;45.640;11.302;2023-04-15T09:35:19;97671.59;;;14.00;83.95
40315;BME280;26021;45.640;11.302;2023-04-15T09:37:44;97676.00;;;14.13;83.05
40315;BME280;26021;45.640;11.302;2023-04-15T09:40:11;97674.84;;;14.21;81.93
40315;BME280;26021;45.640;11.302;2023-04-15T09:42:36;97624.22;;;13.88;79.63
40315;BME280;26021;45.640;11.302;2023-04-15T09:45:09;97683.97;;;14.50;79.31
40315;BME280;26021;45.640;11.302;2023-04-15T09:47:35;97621.09;;;14.03;79.21
40315;BME280;26021;45.640;11.302;2023-04-15T09:50:01;97677.94;;;14.78;77.59
40315;BME280;26021;45.640;11.302;2023-04-15T09:52:27;97685.06;;;14.60;76.31
40315;BME280;26021;45.640;11.302;2023-04-15T09:54:54;97674.94;;;14.14;78.28
40315;BME280;26021;45.640;11.302;2023-04-15T09:57:22;97620.25;;;13.42;80.62
40315;BME280;26021;45.640;11.302;2023-04-15T09:59:49;97674.66;;;14.04;80.33
40315;BME280;26021;45.640;11.302;2023-04-15T10:02:14;97681.31;;;14.31;79.09
40315;BME280;26021;45.640;11.302;2023-04-15T10:04:40;97676.88;;;14.67;81.86
40315;BME280;26021;45.640;11.302;2023-04-15T10:07:08;97673.38;;;14.67;78.85
40315;BME280;26021;45.640;11.302;2023-04-15T10:09:35;97611.66;;;14.12;76.47
40315;BME280;26021;45.640;11.302;2023-04-15T10:12:02;97638.03;;;14.21;76.26
40315;BME280;26021;45.640;11.302;2023-04-15T10:14:31;97674.50;;;14.47;80.66
40315;BME280;26021;45.640;11.302;2023-04-15T10:17:00;97672.28;;;14.44;77.10
40315;BME280;26021;45.640;11.302;2023-04-15T10:19:26;97674.19;;;14.25;79.43
40315;BME280;26021;45.640;11.302;2023-04-15T10:21:53;97671.22;;;14.45;77.94
40315;BME280;26021;45.640;11.302;2023-04-15T10:24:19;97668.09;;;14.30;79.57
40315;BME280;26021;45.640;11.302;2023-04-15T10:26:45;97567.19;;;13.56;79.19
40315;BME280;26021;45.640;11.302;2023-04-15T10:29:12;97637.50;;;13.83;80.18
40315;BME280;26021;45.640;11.302;2023-04-15T10:31:38;97664.19;;;14.44;78.05
40315;BME280;26021;45.640;11.302;2023-04-15T10:34:05;97504.63;;;13.67;79.86
40315;BME280;26021;45.640;11.302;2023-04-15T10:36:32;97663.47;;;14.90;77.77
40315;BME280;26021;45.640;11.302;2023-04-15T10:38:57;97666.41;;;15.12;75.08
40315;BME280;26021;45.640;11.302;2023-04-15T10:41:24;97574.63;;;14.55;75.00
40315;BME280;26021;45.640;11.302;2023-04-15T10:44:01;97665.09;;;15.38;76.88
40315;BME280;26021;45.640;11.302;2023-04-15T10:46:43;97636.19;;;15.22;73.45
40315;BME280;26021;45.640;11.302;2023-04-15T10:49:23;97630.06;;;14.56;71.27
40315;BME280;26021;45.640;11.302;2023-04-15T10:51:56;97656.09;;;15.09;77.01
40315;BME280;26021;45.640;11.302;2023-04-15T10:56:52;97621.66;;;15.35;70.31
40315;BME280;26021;45.640;11.302;2023-04-15T10:59:38;97664.78;;;15.23;71.86
40315;BME280;26021;45.640;11.302;2023-04-15T11:02:47;97662.09;;;15.00;70.78
40315;BME280;26021;45.640;11.302;2023-04-15T11:05:17;97672.50;;;14.96;71.63
40315;BME280;26021;45.640;11.302;2023-04-15T11:12:43;97654.06;;;15.51;70.69
40315;BME280;26021;45.640;11.302;2023-04-15T11:15:42;97651.97;;;15.77;67.95
40315;BME280;26021;45.640;11.302;2023-04-15T11:18:26;97651.19;;;16.21;66.27
40315;BME280;26021;45.640;11.302;2023-04-15T11:21:06;97653.06;;;15.64;61.64
40315;BME280;26021;45.640;11.302;2023-04-15T11:23:39;97643.22;;;15.98;66.87
40315;BME280;26021;45.640;11.302;2023-04-15T11:26:09;97642.22;;;15.52;60.18
40315;BME280;26021;45.640;11.302;2023-04-15T11:28:37;97651.41;;;15.40;61.63
40315;BME280;26021;45.640;11.302;2023-04-15T11:31:14;97650.72;;;15.21;65.32
40315;BME280;26021;45.640;11.302;2023-04-15T11:33:57;97648.94;;;15.26;67.57
40315;BME280;26021;45.640;11.302;2023-04-15T11:36:28;97653.19;;;15.22;67.79
40315;BME280;26021;45.640;11.302;2023-04-15T11:38:54;97647.78;;;14.87;72.17
40315;BME280;26021;45.640;11.302;2023-04-15T11:41:23;97656.44;;;15.24;71.32
40315;BME280;26021;45.640;11.302;2023-04-15T11:43:50;97646.22;;;15.73;68.83
40315;BME280;26021;45.640;11.302;2023-04-15T11:46:16;97649.06;;;15.20;66.47
40315;BME280;26021;45.640;11.302;2023-04-15T11:48:43;97652.13;;;15.00;69.77
40315;BME280;26021;45.640;11.302;2023-04-15T11:51:10;97645.28;;;14.62;69.60
40315;BME280;26021;45.640;11.302;2023-04-15T11:53:43;97654.81;;;15.00;68.64
40315;BME280;26021;45.640;11.302;2023-04-15T11:56:10;97628.94;;;15.11;68.59
40315;BME280;26021;45.640;11.302;2023-04-15T11:58:40;97641.78;;;15.44;65.68
40315;BME280;26021;45.640;11.302;2023-04-15T12:01:07;97650.59;;;15.63;63.83
40315;BME280;26021;45.640;11.302;2023-04-15T12:06:17;97645.06;;;15.69;65.86
40315;BME280;26021;45.640;11.302;2023-04-15T12:08:49;97646.81;;;15.75;68.96
40315;BME280;26021;45.640;11.302;2023-04-15T12:14:17;97626.34;;;15.91;65.13
40315;BME280;26021;45.640;11.302;2023-04-15T12:16:53;97631.75;;;15.91;66.29
40315;BME280;26021;45.640;11.302;2023-04-15T12:19:31;97647.72;;;15.81;68.59
40315;BME280;26021;45.640;11.302;2023-04-15T12:22:04;97651.13;;;15.53;67.32
40315;BME280;26021;45.640;11.302;2023-04-15T12:24:33;97619.91;;;14.70;70.20
40315;BME280;26021;45.640;11.302;2023-04-15T12:27:03;97653.53;;;15.03;71.31
40315;BME280;26021;45.640;11.302;2023-04-15T12:29:29;97648.97;;;15.15;69.06
40315;BME280;26021;45.640;11.302;2023-04-15T12:31:57;97651.19;;;15.18;62.99
40315;BME280;26021;45.640;11.302;2023-04-15T12:34:31;97612.09;;;15.04;66.24
40315;BME280;26021;45.640;11.302;2023-04-15T12:36:58;97653.47;;;14.68;66.97
40315;BME280;26021;45.640;11.302;2023-04-15T12:39:25;97652.75;;;14.19;70.21
40315;BME280;26021;45.640;11.302;2023-04-15T12:41:51;97657.78;;;14.15;70.63
40315;BME280;26021;45.640;11.302;2023-04-15T12:44:17;97662.16;;;14.10;70.34
40315;BME280;26021;45.640;11.302;2023-04-15T12:46:43;97651.41;;;14.40;70.06
40315;BME280;26021;45.640;11.302;2023-04-15T12:49:08;97655.13;;;14.80;62.83
40315;BME280;26021;45.640;11.302;2023-04-15T12:51:34;97649.41;;;14.77;66.08
40315;BME280;26021;45.640;11.302;2023-04-15T12:53:59;97649.19;;;15.25;64.33
40315;BME280;26021;45.640;11.302;2023-04-15T12:56:25;97646.38;;;15.20;65.21
40315;BME280;26021;45.640;11.302;2023-04-15T12:58:51;97620.63;;;15.24;62.10
40315;BME280;26021;45.640;11.302;2023-04-15T13:01:16;97652.97;;;15.87;63.10
40315;BME280;26021;45.640;11.302;2023-04-15T13:03:43;97636.53;;;15.61;61.35
40315;BME280;26021;45.640;11.302;2023-04-15T13:06:08;97654.84;;;15.87;63.57
40315;BME280;26021;45.640;11.302;2023-04-15T13:08:33;97636.09;;;15.92;62.32
40315;BME280;26021;45.640;11.302;2023-04-15T13:10:59;97612.88;;;15.27;64.42